Time;durP1;ratioP1;P1;durP2;ratioP2;P2;SDS_P1;SDS_P2;PMS_P1;PMS_P2;Temp;Humidity;BMP_temperature;BMP_pressure;BME280_temperature;BME280_humidity;BME280_pressure;Samples;Min_cycle;Max_cycle;Signal;HPM_P1;HPM_P2
2021/08/09 00:00:28;;;;;;;1.67;1.15;;;;;;;7.27;100.00;93354.94;2097184;28;20385;-84
2021/08/09 00:01:29;;;;;;;3.50;1.60;;;;;;;7.31;100.00;93345.03;2104325;28;20024;-84
2021/08/09 00:02:30;;;;;;;2.95;1.35;;;;;;;7.24;100.00;93344.31;2098594;28;20145;-86
2021/08/09 00:03:31;;;;;;;1.65;1.33;;;;;;;7.30;100.00;93340.09;2091091;28;20041;-85
2021/08/09 00:04:34;;;;;;;9.48;1.63;;;;;;;7.29;100.00;93336.69;2101099;28;20070;-85
2021/08/09 00:05:36;;;;;;;1.60;1.00;;;;;;;7.23;100.00;93348.13;2113861;28;20346;-86
2021/08/09 00:06:37;;;;;;;5.25;1.20;;;;;;;7.26;100.00;93340.13;2104917;28;20117;-86
2021/08/09 00:07:37;;;;;;;3.70;1.42;;;;;;;7.29;100.00;93341.25;2105192;28;20105;-85
2021/08/09 00:08:38;;;;;;;4.13;1.38;;;;;;;7.35;100.00;93341.59;2104995;28;20453;-84
2021/08/09 00:09:39;;;;;;;1.42;1.33;;;;;;;7.24;100.00;93341.66;2096843;28;20115;-84
2021/08/09 00:10:40;;;;;;;5.55;1.83;;;;;;;7.20;100.00;93348.88;2096921;28;20029;-85
2021/08/09 00:11:41;;;;;;;4.10;1.30;;;;;;;7.21;100.00;93339.78;2096763;28;20020;-84
2021/08/09 00:12:42;;;;;;;1.35;1.20;;;;;;;7.19;100.00;93347.38;2105306;28;20027;-84
2021/08/09 00:13:43;;;;;;;3.58;1.38;;;;;;;7.20;100.00;93347.00;2096811;28;20024;-86
2021/08/09 00:14:44;;;;;;;4.22;1.20;;;;;;;7.20;100.00;93347.00;2097131;28;20078;-85
2021/08/09 00:15:45;;;;;;;1.52;1.42;;;;;;;7.26;100.00;93352.66;2103294;28;20469;-87
2021/08/09 00:16:46;;;;;;;9.25;2.15;;;;;;;7.22;100.00;93352.69;2089269;28;20025;-85
2021/08/09 00:17:47;;;;;;;3.65;1.17;;;;;;;7.26;100.00;93344.69;2089268;28;20040;-85
2021/08/09 00:18:49;;;;;;;2.63;1.50;;;;;;;7.27;100.00;93360.25;2093704;28;20632;-86
2021/08/09 00:19:50;;;;;;;3.70;1.45;;;;;;;7.29;100.00;93351.91;2096177;28;20070;-85
2021/08/09 00:20:52;;;;;;;2.75;1.27;;;;;;;7.32;100.00;93356.41;2095860;28;20032;-86
2021/08/09 00:21:53;;;;;;;2.03;1.58;;;;;;;7.33;100.00;93352.59;2104551;28;20447;-87
2021/08/09 00:22:55;;;;;;;4.35;1.40;;;;;;;7.32;100.00;93351.84;2104633;28;20081;-84
2021/08/09 00:23:56;;;;;;;2.17;1.40;;;;;;;7.36;100.00;93356.41;2104401;28;20024;-87
2021/08/09 00:24:57;;;;;;;1.83;1.42;;;;;;;7.30;100.00;93351.50;2096049;28;20024;-84
2021/08/09 00:25:58;;;;;;;1.73;1.20;;;;;;;7.33;100.00;93349.94;2096475;28;20089;-86
2021/08/09 00:26:59;;;;;;;2.67;1.35;;;;;;;7.23;100.00;93348.88;2108816;28;20039;-86
2021/08/09 00:28:00;;;;;;;2.17;1.17;;;;;;;7.21;100.00;93351.16;2112874;28;20027;-85
2021/08/09 00:29:01;;;;;;;1.63;1.38;;;;;;;7.22;100.00;93352.69;2096542;28;20452;-85
2021/08/09 00:30:03;;;;;;;1.20;1.00;;;;;;;7.22;100.00;93347.34;2096419;28;20370;-85
2021/08/09 00:31:04;;;;;;;4.20;1.55;;;;;;;7.27;100.00;93354.16;2087923;28;20040;-84
2021/08/09 00:32:05;;;;;;;2.17;1.30;;;;;;;7.26;100.00;93347.34;2096918;28;20020;-84
2021/08/09 00:33:06;;;;;;;1.55;1.15;;;;;;;7.25;100.00;93343.94;2097219;28;20024;-83
2021/08/09 00:34:07;;;;;;;2.85;1.40;;;;;;;7.23;100.00;93350.78;2089343;28;20410;-86
2021/08/09 00:35:09;;;;;;;2.75;1.40;;;;;;;7.16;100.00;93348.91;2095754;28;20061;-84
2021/08/09 00:36:09;;;;;;;1.85;1.40;;;;;;;7.23;100.00;93340.13;2104190;28;20024;-85
2021/08/09 00:37:10;;;;;;;3.13;1.45;;;;;;;7.18;100.00;93341.31;2104879;28;20035;-85
2021/08/09 00:38:11;;;;;;;2.53;1.63;;;;;;;7.16;100.00;93342.84;2096608;28;20063;-86
2021/08/09 00:39:12;;;;;;;3.33;1.20;;;;;;;7.14;100.00;93342.47;2105557;28;20031;-85
2021/08/09 00:40:13;;;;;;;3.38;1.50;;;;;;;7.16;100.00;93340.19;2097128;28;20062;-87
2021/08/09 00:41:15;;;;;;;1.65;1.13;;;;;;;7.21;100.00;93339.78;2096831;28;20040;-86
2021/08/09 00:42:16;;;;;;;3.03;1.40;;;;;;;7.23;100.00;93329.50;2096845;28;20039;-84
2021/08/09 00:43:16;;;;;;;1.77;1.38;;;;;;;7.20;100.00;93344.34;2088868;28;20205;-84
2021/08/09 00:44:17;;;;;;;4.93;1.65;;;;;;;7.17;100.00;93347.03;2096998;28;20035;-84
2021/08/09 00:45:18;;;;;;;2.58;1.23;;;;;;;7.17;100.00;93333.72;2113855;28;20629;-85
2021/08/09 00:46:19;;;;;;;1.30;1.20;;;;;;;7.16;100.00;93332.97;2104580;28;20115;-85
2021/08/09 00:47:20;;;;;;;3.60;1.30;;;;;;;7.18;100.00;93335.22;2104780;28;20469;-84
2021/08/09 00:48:21;;;;;;;1.98;1.33;;;;;;;7.06;100.00;93336.44;2105101;28;20599;-84
2021/08/09 00:49:22;;;;;;;1.30;1.10;;;;;;;7.06;100.00;93336.44;2089026;28;20501;-86
2021/08/09 00:50:23;;;;;;;1.45;1.20;;;;;;;7.09;100.00;93334.91;2089440;28;20029;-84
2021/08/09 00:51:25;;;;;;;3.83;1.30;;;;;;;6.97;100.00;93334.19;2105640;28;20020;-83
2021/08/09 00:52:26;;;;;;;3.75;1.20;;;;;;;7.01;100.00;93340.25;2103030;28;20039;-84
2021/08/09 00:53:28;;;;;;;1.55;1.35;;;;;;;7.06;100.00;93341.75;2094682;28;20058;-83
2021/08/09 00:54:29;;;;;;;1.17;1.08;;;;;;;7.04;100.00;93344.78;2095633;28;20411;-85
2021/08/09 00:55:30;;;;;;;1.90;1.20;;;;;;;6.99;100.00;93333.81;2096176;28;20032;-84
2021/08/09 00:56:31;;;;;;;5.30;1.83;;;;;;;7.04;100.00;93330.75;2087941;28;20025;-87
2021/08/09 00:57:33;;;;;;;4.15;1.30;;;;;;;6.96;100.00;93329.28;2091717;28;20029;-85
2021/08/09 00:58:34;;;;;;;6.93;1.60;;;;;;;7.00;100.00;93335.31;2104355;28;20032;-86
2021/08/09 00:59:36;;;;;;;2.05;1.20;;;;;;;7.00;100.00;93336.06;2104621;28;20022;-84
2021/08/09 01:00:37;;;;;;;3.10;1.60;;;;;;;7.04;100.00;93328.84;2096246;28;20023;-85
2021/08/09 01:01:38;;;;;;;2.08;1.60;;;;;;;7.15;100.00;93336.00;2096201;28;20027;-87
2021/08/09 01:02:39;;;;;;;1.92;1.40;;;;;;;7.16;100.00;93332.97;2104171;28;20054;-85
2021/08/09 01:03:40;;;;;;;4.35;1.63;;;;;;;7.14;100.00;93335.25;2094160;28;20020;-85
2021/08/09 01:04:41;;;;;;;3.85;1.55;;;;;;;7.03;100.00;93331.91;2095714;28;20029;-85
2021/08/09 01:05:42;;;;;;;4.57;1.42;;;;;;;7.03;100.00;93327.34;2096283;28;20024;-86
2021/08/09 01:06:43;;;;;;;4.72;1.80;;;;;;;7.00;100.00;93338.72;2104224;28;20048;-86
2021/08/09 01:07:59;;;;;;;2.30;1.50;;;;;;;7.03;100.00;93337.22;2103546;28;20447;-86
2021/08/09 01:09:18;;;;;;;3.42;1.75;;;;;;;7.03;100.00;93334.56;2096490;28;20488;-83
2021/08/09 01:10:27;;;;;;;2.33;2.13;;;;;;;7.11;100.00;93337.91;2093348;28;20509;-84
2021/08/09 01:11:41;;;;;;;3.05;1.70;;;;;;;7.06;100.00;93345.16;2093765;28;20036;-84
2021/08/09 01:12:50;;;;;;;2.38;1.60;;;;;;;7.13;100.00;93352.34;2098218;28;20020;-85
2021/08/09 01:14:00;;;;;;;3.05;1.70;;;;;;;7.17;100.00;93347.03;2097448;28;20032;-86
2021/08/09 01:15:18;;;;;;;1.60;1.50;;;;;;;7.14;100.00;93345.13;2090938;28;20032;-85
2021/08/09 01:16:26;;;;;;;1.45;1.15;;;;;;;7.14;100.00;93342.47;2098077;28;20030;-87
2021/08/09 01:17:35;;;;;;;2.97;1.65;;;;;;;7.18;100.00;93343.22;2098820;28;20028;-85
2021/08/09 01:18:37;;;;;;;1.50;1.40;;;;;;;7.06;100.00;93347.06;2089450;28;20056;-85
2021/08/09 01:19:38;;;;;;;1.83;1.40;;;;;;;7.10;100.00;93347.03;2105435;28;20050;-84
2021/08/09 01:20:51;;;;;;;3.45;1.60;;;;;;;7.10;100.00;93347.03;2104761;28;20405;-86
2021/08/09 01:21:58;;;;;;;4.07;1.20;;;;;;;7.14;100.00;93351.19;2097643;28;20166;-86
2021/08/09 01:23:39;;;;;;;1.65;1.30;;;;;;;7.13;100.00;93351.59;2098065;28;20036;-85
2021/08/09 01:24:49;;;;;;;1.50;1.20;;;;;;;7.02;100.00;93349.75;2100695;28;20047;-85
2021/08/09 01:25:50;;;;;;;;;;;;;;;6.98;100.00;93349.00;2088115;28;20686;-84
2021/08/09 01:27:06;;;;;;;3.15;1.40;;;;;;;7.02;100.00;93354.28;2105368;28;19912;-85
2021/08/09 01:28:08;;;;;;;1.73;1.40;;;;;;;6.96;100.00;93355.84;2105590;28;20024;-85
2021/08/09 01:29:13;;;;;;;4.05;1.45;;;;;;;6.96;100.00;93361.91;2097566;28;20054;-84
2021/08/09 01:30:15;;;;;;;1.30;1.20;;;;;;;6.96;100.00;93353.19;2100391;28;20133;-86
2021/08/09 01:31:17;;;;;;;2.55;1.30;;;;;;;6.95;100.00;93352.44;2104009;28;20028;-86
2021/08/09 01:32:19;;;;;;;1.73;1.33;;;;;;;6.96;100.00;93356.59;2095871;28;20016;-87
2021/08/09 01:33:23;;;;;;;1.73;1.40;;;;;;;7.09;100.00;93354.25;2096128;28;20028;-85
2021/08/09 01:34:26;;;;;;;2.85;1.60;;;;;;;6.98;100.00;93351.66;2104486;28;20083;-84
2021/08/09 01:35:28;;;;;;;2.08;1.50;;;;;;;7.01;100.00;93352.78;2104419;28;20082;-84
2021/08/09 01:36:32;;;;;;;1.63;1.40;;;;;;;6.93;100.00;93351.28;2112728;28;20472;-84
2021/08/09 01:37:38;;;;;;;1.75;1.50;;;;;;;6.91;100.00;93356.25;2103929;28;20059;-85
2021/08/09 01:38:41;;;;;;;5.63;1.55;;;;;;;6.92;100.00;93355.09;2104223;28;20019;-86
2021/08/09 01:39:43;;;;;;;2.53;1.48;;;;;;;6.90;100.00;93349.41;2112862;28;20051;-85
2021/08/09 01:40:47;;;;;;;3.00;1.60;;;;;;;6.86;100.00;93349.44;2100086;28;20551;-85
2021/08/09 01:41:49;;;;;;;1.83;1.30;;;;;;;6.86;100.00;93341.47;2096519;28;20020;-85
2021/08/09 01:42:51;;;;;;;3.28;1.40;;;;;;;6.84;100.00;93348.28;2104845;28;20027;-85
2021/08/09 01:43:52;;;;;;;5.53;1.85;;;;;;;6.82;100.00;93340.72;2104186;28;20063;-85
2021/08/09 01:44:53;;;;;;;1.88;1.35;;;;;;;6.86;100.00;93348.69;2087322;28;20033;-85
2021/08/09 01:45:57;;;;;;;2.50;1.85;;;;;;;6.84;100.00;93346.38;2094400;28;20033;-83
2021/08/09 01:46:58;;;;;;;1.65;1.20;;;;;;;6.87;100.00;93348.28;2104850;28;20020;-86
2021/08/09 01:47:59;;;;;;;1.65;1.45;;;;;;;6.85;100.00;93350.59;2096040;28;20035;-84
2021/08/09 01:49:02;;;;;;;2.85;1.40;;;;;;;6.82;100.00;93344.13;2088156;28;20037;-83
2021/08/09 01:50:04;;;;;;;3.83;1.40;;;;;;;6.81;100.00;93344.53;2088367;28;20037;-84
2021/08/09 01:51:06;;;;;;;5.82;1.35;;;;;;;6.82;100.00;93346.03;2104787;28;20041;-86
2021/08/09 01:52:07;;;;;;;3.17;1.58;;;;;;;6.82;100.00;93343.38;2105047;28;20032;-84
2021/08/09 01:53:09;;;;;;;1.88;1.30;;;;;;;6.82;100.00;93340.72;2100278;28;20081;-85
2021/08/09 01:54:10;;;;;;;3.95;1.40;;;;;;;6.77;100.00;93351.75;2104852;28;20071;-86
2021/08/09 01:55:14;;;;;;;4.85;1.42;;;;;;;6.73;100.00;93343.03;2104435;28;20412;-84
2021/08/09 01:56:15;;;;;;;2.22;1.42;;;;;;;6.70;100.00;93344.53;2104877;28;20495;-87
2021/08/09 01:57:16;;;;;;;1.00;1.00;;;;;;;6.66;100.00;93343.03;2096530;28;20024;-87
2021/08/09 01:58:17;;;;;;;1.85;1.58;;;;;;;6.69;100.00;93351.00;2094551;28;20020;-86
2021/08/09 01:59:21;;;;;;;2.05;1.40;;;;;;;6.65;100.00;93350.25;2097696;28;20051;-84
2021/08/09 02:00:22;;;;;;;1.27;1.17;;;;;;;6.65;100.00;93347.59;2096918;28;20412;-87
2021/08/09 02:01:23;;;;;;;1.50;1.40;;;;;;;6.67;100.00;93349.88;2087904;28;20017;-86
2021/08/09 02:02:27;;;;;;;1.20;1.10;;;;;;;6.69;100.00;93350.25;2094632;28;20032;-84
2021/08/09 02:03:28;;;;;;;2.63;1.50;;;;;;;6.73;100.00;93349.09;2103649;28;20020;-85
2021/08/09 02:04:29;;;;;;;2.65;1.10;;;;;;;6.73;100.00;93348.34;2094826;28;20016;-84
2021/08/09 02:06:44;;;;;;;;;;;;;;;6.59;100.00;93348.41;2148713;27;20358;-87
2021/08/09 02:07:47;;;;;;;1.80;1.10;;;;;;;6.58;100.00;93344.97;2130606;27;19911;-90
2021/08/09 02:08:48;;;;;;;1.30;1.20;;;;;;;6.59;100.00;93343.09;2113998;27;20115;-89
2021/08/09 02:09:49;;;;;;;2.38;1.17;;;;;;;6.52;100.00;93339.28;2130521;27;20447;-88
2021/08/09 02:10:59;;;;;;;2.05;1.08;;;;;;;6.49;100.00;93336.63;2121773;28;20023;-87
2021/08/09 02:12:06;;;;;;;4.15;1.30;;;;;;;6.50;100.00;93336.28;2132915;27;20045;-89
2021/08/09 02:13:17;;;;;;;1.42;1.00;;;;;;;6.54;100.00;93334.38;2130195;27;20056;-88
2021/08/09 02:14:21;;;;;;;2.60;1.00;;;;;;;6.56;100.00;93334.72;2099626;28;20492;-88
2021/08/09 02:15:45;;;;;;;2.17;1.25;;;;;;;6.60;100.00;93333.97;2116621;27;20027;-88
2021/08/09 02:17:16;;;;;;;1.10;1.00;;;;;;;6.60;100.00;93341.94;2116635;28;20800;-89
2021/08/09 02:18:34;;;;;;;;;;;;;;;6.57;100.00;93336.25;2105038;28;20088;-86
2021/08/09 02:19:46;;;;;;;4.47;1.25;;;;;;;6.54;100.00;93336.25;2116028;28;20346;-87
2021/08/09 02:20:48;;;;;;;2.88;1.20;;;;;;;6.55;100.00;93330.56;2114704;28;20024;-90
2021/08/09 02:22:09;;;;;;;1.73;1.42;;;;;;;6.59;100.00;93327.91;2113631;28;20103;-87
2021/08/09 02:23:14;;;;;;;3.17;1.05;;;;;;;6.59;100.00;93327.91;2107853;28;20035;-88
2021/08/09 02:24:22;;;;;;;2.88;1.50;;;;;;;6.50;100.00;93336.28;2106201;28;20456;-89
2021/08/09 02:25:27;;;;;;;1.27;1.17;;;;;;;6.51;100.00;93331.72;2123056;27;20035;-87
2021/08/09 02:26:44;;;;;;;2.80;1.27;;;;;;;6.42;100.00;93342.00;2121722;28;20023;-86
2021/08/09 02:27:49;;;;;;;1.38;1.25;;;;;;;6.38;100.00;93336.69;2107226;28;20020;-87
2021/08/09 02:28:52;;;;;;;1.48;1.38;;;;;;;6.42;100.00;93334.78;2120437;27;20090;-86
2021/08/09 02:29:53;;;;;;;2.78;1.40;;;;;;;6.40;100.00;93338.94;2115667;28;20015;-87
2021/08/09 02:30:59;;;;;;;2.58;1.40;;;;;;;6.44;100.00;93331.72;2107085;28;20020;-86
2021/08/09 02:32:03;;;;;;;3.65;1.38;;;;;;;6.38;100.00;93333.28;2114596;27;20031;-89
2021/08/09 02:33:05;;;;;;;3.53;1.38;;;;;;;6.35;100.00;93336.69;2114285;27;20024;-87
2021/08/09 02:34:08;;;;;;;2.55;1.20;;;;;;;6.30;100.00;93338.59;2113716;27;20524;-88
2021/08/09 02:35:11;;;;;;;1.35;1.20;;;;;;;6.31;100.00;93342.75;2113875;27;20067;-88
2021/08/09 02:36:12;;;;;;;1.90;1.23;;;;;;;6.33;100.00;93341.63;2131144;27;20022;-85
2021/08/09 02:37:14;;;;;;;2.65;1.40;;;;;;;6.34;100.00;93343.91;2134669;27;20118;-88
2021/08/09 02:38:17;;;;;;;2.28;1.42;;;;;;;6.42;100.00;93339.34;2114833;28;20214;-86
2021/08/09 02:39:18;;;;;;;4.30;1.42;;;;;;;6.48;100.00;93348.41;2104976;28;20028;-89
2021/08/09 02:40:20;;;;;;;5.20;2.03;;;;;;;6.56;100.00;93344.59;2105266;27;20051;-86
2021/08/09 02:41:21;;;;;;;2.00;1.27;;;;;;;6.62;100.00;93343.06;2122190;27;20019;-86
2021/08/09 02:42:23;;;;;;;3.15;1.50;;;;;;;6.63;100.00;93343.81;2130230;27;20024;-87
2021/08/09 02:43:26;;;;;;;2.78;1.50;;;;;;;6.60;100.00;93345.34;2130310;27;20098;-89
2021/08/09 02:44:28;;;;;;;3.50;1.40;;;;;;;6.62;100.00;93342.28;2138591;27;20379;-87
2021/08/09 02:45:29;;;;;;;2.20;1.40;;;;;;;6.61;100.00;93341.53;2113135;28;20024;-88
2021/08/09 02:46:32;;;;;;;1.83;1.27;;;;;;;6.61;100.00;93340.78;2113167;27;20565;-89
2021/08/09 02:47:37;;;;;;;2.50;1.30;;;;;;;6.57;100.00;93341.53;2112828;28;20477;-89
2021/08/09 02:48:41;;;;;;;1.65;1.55;;;;;;;6.61;100.00;93346.09;2105186;28;20020;-90
2021/08/09 02:49:48;;;;;;;5.50;1.30;;;;;;;6.58;100.00;93342.31;2113573;28;20095;-86
2021/08/09 02:50:50;;;;;;;1.40;1.30;;;;;;;6.63;100.00;93344.59;2113925;28;20020;-89
2021/08/09 02:51:51;;;;;;;1.88;1.42;;;;;;;6.57;100.00;93341.53;2113056;28;20027;-89
2021/08/09 02:52:54;;;;;;;2.95;1.27;;;;;;;6.68;100.00;93349.50;2113398;28;20106;-88
2021/08/09 02:53:55;;;;;;;3.45;1.50;;;;;;;6.60;100.00;93341.94;2105058;28;20107;-90
2021/08/09 02:54:57;;;;;;;2.70;1.35;;;;;;;6.66;100.00;93349.13;2104904;28;20020;-87
2021/08/09 02:56:01;;;;;;;3.38;1.30;;;;;;;6.59;100.00;93349.16;2106103;27;20028;-88
2021/08/09 02:57:04;;;;;;;1.33;1.23;;;;;;;6.54;100.00;93350.31;2122552;27;20531;-86
2021/08/09 02:58:07;;;;;;;1.30;1.20;;;;;;;6.58;100.00;93350.28;2130575;27;20071;-88
2021/08/09 02:59:08;;;;;;;2.40;1.20;;;;;;;6.65;100.00;93352.16;2122119;27;20461;-88
2021/08/09 03:00:09;;;;;;;1.30;1.10;;;;;;;6.72;100.00;93346.84;2121689;27;20019;-88
2021/08/09 03:01:14;;;;;;;3.88;1.20;;;;;;;6.69;100.00;93347.59;2113034;28;20114;-87
2021/08/09 03:02:17;;;;;;;3.17;1.77;;;;;;;6.72;100.00;93352.16;2113739;28;20031;-87
2021/08/09 03:03:21;;;;;;;1.95;1.33;;;;;;;6.72;100.00;93349.50;2113586;28;20373;-91
2021/08/09 03:04:24;;;;;;;4.20;1.52;;;;;;;6.75;100.00;93340.72;2114294;27;20066;-86
2021/08/09 03:05:26;;;;;;;3.28;1.30;;;;;;;6.71;100.00;93343.41;2113486;28;20383;-89
2021/08/09 03:06:28;;;;;;;2.30;1.45;;;;;;;6.73;100.00;93348.34;2121811;27;20040;-88
2021/08/09 03:07:30;;;;;;;4.53;1.50;;;;;;;6.71;100.00;93347.97;2137362;27;20026;-87
2021/08/09 03:08:31;;;;;;;2.00;1.42;;;;;;;6.75;100.00;93346.03;2121521;28;20057;-88
2021/08/09 03:09:35;;;;;;;2.72;1.63;;;;;;;6.80;100.00;93340.34;2113568;28;20015;-86
2021/08/09 03:10:36;;;;;;;2.70;1.38;;;;;;;6.78;100.00;93342.63;2114186;28;20099;-85
2021/08/09 03:11:41;;;;;;;1.52;1.42;;;;;;;6.73;100.00;93356.31;2110128;28;20031;-84
2021/08/09 03:12:42;;;;;;;1.77;1.67;;;;;;;6.77;100.00;93346.44;2112869;28;20020;-86
2021/08/09 03:13:48;;;;;;;1.63;1.50;;;;;;;6.77;100.00;93339.22;2109940;28;20032;-85
2021/08/09 03:14:50;;;;;;;1.40;1.30;;;;;;;6.73;100.00;93343.03;2107105;28;20024;-88
2021/08/09 03:15:52;;;;;;;2.10;1.30;;;;;;;6.71;100.00;93347.97;2105131;28;20016;-87
2021/08/09 03:16:53;;;;;;;4.35;1.27;;;;;;;6.73;100.00;93349.09;2095926;28;20029;-87
2021/08/09 03:17:54;;;;;;;2.88;1.20;;;;;;;6.74;100.00;93352.50;2104796;28;20536;-86
2021/08/09 03:18:55;;;;;;;2.25;1.52;;;;;;;6.72;100.00;93352.91;2115315;28;20055;-88
2021/08/09 03:19:56;;;;;;;1.92;1.50;;;;;;;6.76;100.00;93350.22;2109172;28;20102;-88
2021/08/09 03:20:57;;;;;;;4.53;2.00;;;;;;;6.73;100.00;93353.66;2102187;28;20016;-86
2021/08/09 03:22:00;;;;;;;1.23;1.13;;;;;;;6.69;100.00;93350.25;2098977;28;20074;-88
2021/08/09 03:23:00;;;;;;;2.30;1.80;;;;;;;6.71;100.00;93345.28;2107970;28;20108;-88
2021/08/09 03:24:01;;;;;;;2.70;1.25;;;;;;;6.66;100.00;93351.00;2107348;28;20020;-88
2021/08/09 03:25:03;;;;;;;4.65;1.60;;;;;;;6.68;100.00;93344.19;2115877;28;20429;-89
2021/08/09 03:26:05;;;;;;;1.83;1.30;;;;;;;6.68;100.00;93351.41;2111643;28;20460;-88
2021/08/09 03:27:06;;;;;;;2.20;1.60;;;;;;;6.70;100.00;93351.75;2107461;28;20168;-88
2021/08/09 03:28:08;;;;;;;2.35;1.40;;;;;;;6.68;100.00;93354.06;2107391;28;20427;-86
2021/08/09 03:29:09;;;;;;;1.48;1.30;;;;;;;6.75;100.00;93351.34;2107845;28;20028;-86
2021/08/09 03:30:10;;;;;;;3.05;1.42;;;;;;;6.69;100.00;93352.91;2107002;28;20031;-88
2021/08/09 03:31:11;;;;;;;1.65;1.38;;;;;;;6.67;100.00;93352.53;2107354;28;20020;-88
2021/08/09 03:32:12;;;;;;;4.65;1.40;;;;;;;6.66;100.00;93353.66;2098836;28;20138;-90
2021/08/09 03:33:13;;;;;;;2.90;1.38;;;;;;;6.62;100.00;93356.31;2107156;28;20478;-89
2021/08/09 03:34:27;;;;;;;1.60;1.30;;;;;;;6.65;100.00;93352.91;2098835;28;20036;-88
2021/08/09 03:35:28;;;;;;;1.90;1.30;;;;;;;6.65;100.00;93357.47;2100867;28;20084;-87
2021/08/09 03:36:29;;;;;;;4.97;4.22;;;;;;;6.66;100.00;93351.00;2099255;28;20023;-88
2021/08/09 03:37:30;;;;;;;4.57;2.65;;;;;;;6.68;100.00;93348.75;2115875;27;20028;-89
2021/08/09 03:38:31;;;;;;;2.95;2.63;;;;;;;6.66;100.00;93354.41;2107217;28;20020;-88
2021/08/09 03:39:32;;;;;;;3.13;2.10;;;;;;;6.66;100.00;93345.69;2099070;28;20024;-89
2021/08/09 03:40:33;;;;;;;2.65;2.38;;;;;;;6.68;100.00;93341.53;2107570;28;20054;-89
2021/08/09 03:41:35;;;;;;;2.95;1.80;;;;;;;6.73;100.00;93351.00;2105966;28;20138;-87
2021/08/09 03:42:36;;;;;;;3.25;1.90;;;;;;;6.70;100.00;93344.53;2107089;28;20030;-87
2021/08/09 03:43:37;;;;;;;3.25;1.60;;;;;;;6.75;100.00;93354.00;2098920;28;20024;-89
2021/08/09 03:44:38;;;;;;;1.40;1.17;;;;;;;6.78;100.00;93347.94;2107356;28;20016;-89
2021/08/09 03:45:39;;;;;;;2.40;1.40;;;;;;;6.77;100.00;93349.84;2103727;28;20024;-89
2021/08/09 03:46:40;;;;;;;1.80;1.52;;;;;;;6.65;100.00;93347.59;2090563;28;20025;-88
2021/08/09 03:47:41;;;;;;;1.85;1.35;;;;;;;6.64;100.00;93346.09;2090810;28;20020;-88
2021/08/09 03:48:42;;;;;;;5.38;1.65;;;;;;;6.61;100.00;93352.16;2098854;28;20029;-88
2021/08/09 03:49:43;;;;;;;2.67;1.60;;;;;;;6.62;100.00;93356.31;2098971;28;20024;-87
2021/08/09 03:50:44;;;;;;;3.35;1.65;;;;;;;6.67;100.00;93353.31;2098890;28;20074;-87
2021/08/09 03:51:45;;;;;;;2.28;1.52;;;;;;;6.59;100.00;93351.06;2098875;28;20362;-89
2021/08/09 03:52:47;;;;;;;1.80;1.70;;;;;;;6.62;100.00;93353.69;2098832;28;20427;-87
2021/08/09 03:53:48;;;;;;;2.47;1.40;;;;;;;6.62;100.00;93352.91;2098904;28;20021;-88
2021/08/09 03:54:49;;;;;;;1.88;1.30;;;;;;;6.58;100.00;93350.28;2090518;28;20029;-87
2021/08/09 03:55:50;;;;;;;1.92;1.45;;;;;;;6.59;100.00;93351.81;2105526;28;20016;-88
2021/08/09 03:56:51;;;;;;;2.22;1.40;;;;;;;6.60;100.00;93349.91;2104211;28;20040;-88
2021/08/09 03:57:52;;;;;;;3.83;1.60;;;;;;;6.61;100.00;93354.81;2098969;28;20366;-90
2021/08/09 03:58:53;;;;;;;2.20;1.48;;;;;;;6.64;100.00;93348.00;2098773;28;20119;-88
2021/08/09 03:59:54;;;;;;;3.78;1.48;;;;;;;6.59;100.00;93345.75;2098783;28;20107;-86
2021/08/09 04:00:55;;;;;;;3.15;1.63;;;;;;;6.63;100.00;93343.81;2115539;28;20030;-87
2021/08/09 04:01:56;;;;;;;1.92;1.50;;;;;;;6.57;100.00;93346.84;2107019;28;20459;-86
2021/08/09 04:02:57;;;;;;;5.90;1.63;;;;;;;6.64;100.00;93346.09;2098805;28;20087;-87
2021/08/09 04:03:58;;;;;;;1.83;1.50;;;;;;;6.61;100.00;93348.75;2107176;28;20024;-89
2021/08/09 04:04:59;;;;;;;1.95;1.80;;;;;;;6.61;100.00;93349.50;2106685;28;20020;-90
2021/08/09 04:06:00;;;;;;;2.65;1.80;;;;;;;6.61;100.00;93336.22;2107920;28;20111;-90
2021/08/09 04:07:01;;;;;;;1.40;1.30;;;;;;;6.61;100.00;93344.19;2107144;28;20036;-87
2021/08/09 04:08:02;;;;;;;1.52;1.10;;;;;;;6.56;100.00;93345.34;2098749;28;20516;-88
2021/08/09 04:09:05;;;;;;;2.60;1.42;;;;;;;6.63;100.00;93344.59;2107104;28;20036;-85
2021/08/09 04:10:07;;;;;;;2.42;1.63;;;;;;;6.67;100.00;93341.91;2107350;28;20032;-88
2021/08/09 04:11:09;;;;;;;1.85;1.40;;;;;;;6.68;100.00;93356.72;2116007;27;20016;-87
2021/08/09 04:12:09;;;;;;;2.17;1.33;;;;;;;6.68;100.00;93348.75;2121562;27;20505;-88
2021/08/09 04:13:10;;;;;;;3.08;1.42;;;;;;;6.74;100.00;93355.16;2107037;28;20024;-87
2021/08/09 04:14:11;;;;;;;1.10;1.10;;;;;;;6.68;100.00;93351.41;2106987;28;20028;-88
2021/08/09 04:15:12;;;;;;;5.82;1.45;;;;;;;6.66;100.00;93351.00;2098677;28;20032;-88
2021/08/09 04:16:13;;;;;;;2.55;1.20;;;;;;;6.65;100.00;93346.84;2098839;28;20024;-87
2021/08/09 04:17:15;;;;;;;2.47;1.52;;;;;;;6.66;100.00;93348.34;2098615;28;20016;-87
2021/08/09 04:18:16;;;;;;;1.65;1.20;;;;;;;6.59;100.00;93343.09;2098650;28;20052;-89
2021/08/09 04:19:17;;;;;;;1.50;1.40;;;;;;;6.61;100.00;93341.53;2098750;28;20466;-87
2021/08/09 04:20:18;;;;;;;1.35;1.30;;;;;;;6.61;100.00;93335.47;2098572;28;20020;-88
2021/08/09 04:21:20;;;;;;;7.43;2.17;;;;;;;6.57;100.00;93336.25;2106970;28;20029;-88
2021/08/09 04:22:21;;;;;;;3.05;2.75;;;;;;;6.57;100.00;93324.84;2098788;28;20021;-88
2021/08/09 04:23:22;;;;;;;2.38;2.25;;;;;;;6.59;100.00;93332.47;2098675;28;20024;-88
2021/08/09 04:24:23;;;;;;;2.38;2.17;;;;;;;6.61;100.00;93327.50;2106961;28;20073;-89
2021/08/09 04:25:27;;;;;;;1.75;1.50;;;;;;;6.69;100.00;93334.31;2106973;28;20445;-88
2021/08/09 04:26:28;;;;;;;4.30;1.65;;;;;;;6.68;100.00;93336.22;2112713;28;20569;-89
2021/08/09 04:27:29;;;;;;;1.40;1.30;;;;;;;6.69;100.00;93332.41;2098182;28;20029;-87
2021/08/09 04:28:30;;;;;;;2.83;1.50;;;;;;;6.65;100.00;93339.63;2090215;28;20381;-89
2021/08/09 04:29:31;;;;;;;1.95;1.42;;;;;;;6.68;100.00;93346.09;2097607;28;20025;-90
2021/08/09 04:30:32;;;;;;;1.85;1.30;;;;;;;6.64;100.00;93340.78;2090109;28;20450;-88
2021/08/09 04:31:33;;;;;;;1.88;1.33;;;;;;;6.66;100.00;93343.78;2090434;28;20405;-87
2021/08/09 04:32:40;;;;;;;1.98;1.27;;;;;;;6.62;100.00;93343.06;2090491;28;20105;-89
2021/08/09 04:33:42;;;;;;;1.45;1.25;;;;;;;6.61;100.00;93344.19;2106829;28;20497;-88
2021/08/09 04:34:43;;;;;;;1.45;1.35;;;;;;;6.60;100.00;93344.59;2098962;28;20591;-87
2021/08/09 04:35:44;;;;;;;2.13;1.30;;;;;;;6.56;100.00;93339.28;2090233;28;20025;-89
2021/08/09 04:36:45;;;;;;;2.22;1.17;;;;;;;6.57;100.00;93338.13;2101996;28;20016;-86
2021/08/09 04:37:46;;;;;;;2.40;1.40;;;;;;;6.46;100.00;93332.13;2114063;28;20019;-88
2021/08/09 04:38:47;;;;;;;1.92;1.25;;;;;;;6.36;100.00;93341.59;2112874;27;20127;-90
2021/08/09 04:39:48;;;;;;;1.20;1.10;;;;;;;6.41;100.00;93349.19;2123852;27;20602;-87
2021/08/09 04:40:49;;;;;;;1.98;1.67;;;;;;;6.46;100.00;93346.16;2123746;27;20027;-88
2021/08/09 04:41:50;;;;;;;1.83;1.40;;;;;;;6.52;100.00;93346.50;2115324;27;20020;-86
2021/08/09 04:42:51;;;;;;;2.38;1.20;;;;;;;6.56;100.00;93344.59;2108499;28;20523;-88
2021/08/09 04:43:52;;;;;;;2.13;1.30;;;;;;;6.40;100.00;93344.25;2090243;28;20025;-87
2021/08/09 04:44:53;;;;;;;2.55;1.40;;;;;;;6.45;100.00;93341.19;2106830;28;20445;-87
2021/08/09 04:45:54;;;;;;;3.63;1.45;;;;;;;6.48;100.00;93332.47;2106670;28;20051;-90
2021/08/09 04:46:57;;;;;;;2.67;1.50;;;;;;;6.52;100.00;93341.94;2098503;28;20047;-86
2021/08/09 04:47:58;;;;;;;1.40;1.30;;;;;;;6.50;100.00;93335.53;2107060;28;20047;-87
2021/08/09 04:48:58;;;;;;;3.17;1.40;;;;;;;6.56;100.00;93342.69;2098410;28;20347;-89
2021/08/09 04:49:59;;;;;;;1.73;1.48;;;;;;;6.60;100.00;93348.00;2098441;28;20031;-89
2021/08/09 04:51:00;;;;;;;2.92;1.40;;;;;;;6.57;100.00;93341.53;2113639;28;20015;-88
2021/08/09 04:52:01;;;;;;;2.10;1.30;;;;;;;6.64;100.00;93348.75;2113624;28;20389;-87
2021/08/09 04:53:02;;;;;;;3.72;1.23;;;;;;;6.70;100.00;93338.47;2106881;28;20040;-87
2021/08/09 04:54:04;;;;;;;1.83;1.48;;;;;;;6.75;100.00;93330.84;2098168;28;20039;-87
2021/08/09 04:55:05;;;;;;;5.00;1.38;;;;;;;6.73;100.00;93332.41;2087603;28;20028;-89
2021/08/09 04:56:06;;;;;;;1.17;1.08;;;;;;;6.66;100.00;93329.75;2099155;28;20381;-90
2021/08/09 04:57:07;;;;;;;1.42;1.33;;;;;;;6.73;100.00;93340.38;2102335;28;20066;-88